sensor_id;sensor_type;location;lat;lon;timestamp;P1;durP1;ratioP1;P2;durP2;ratioP2
36009;SDS011;22076;52.182;5.404;2023-12-22T00:01:07;16.08;;;3.00;;
36009;SDS011;22076;52.182;5.404;2023-12-22T00:03:33;18.60;;;3.35;;
36009;SDS011;22076;52.182;5.404;2023-12-22T00:06:01;12.23;;;2.05;;
36009;SDS011;22076;52.182;5.404;2023-12-22T00:08:28;13.68;;;2.17;;
36009;SDS011;22076;52.182;5.404;2023-12-22T00:10:55;8.20;;;1.58;;
36009;SDS011;22076;52.182;5.404;2023-12-22T00:13:21;9.30;;;1.38;;
36009;SDS011;22076;52.182;5.404;2023-12-22T00:15:48;17.17;;;1.95;;
36009;SDS011;22076;52.182;5.404;2023-12-22T00:18:14;8.43;;;1.83;;
36009;SDS011;22076;52.182;5.404;2023-12-22T00:20:41;12.98;;;1.60;;
36009;SDS011;22076;52.182;5.404;2023-12-22T00:23:08;9.77;;;1.85;;
36009;SDS011;22076;52.182;5.404;2023-12-22T00:25:35;9.48;;;1.95;;
36009;SDS011;22076;52.182;5.404;2023-12-22T00:28:02;8.32;;;2.20;;
36009;SDS011;22076;52.182;5.404;2023-12-22T00:30:28;6.55;;;1.65;;
36009;SDS011;22076;52.182;5.404;2023-12-22T00:32:55;4.40;;;1.30;;
36009;SDS011;22076;52.182;5.404;2023-12-22T00:35:21;6.22;;;1.67;;
36009;SDS011;22076;52.182;5.404;2023-12-22T00:37:48;10.63;;;1.88;;
36009;SDS011;22076;52.182;5.404;2023-12-22T00:40:16;16.98;;;1.95;;
36009;SDS011;22076;52.182;5.404;2023-12-22T00:42:42;12.00;;;1.75;;
36009;SDS011;22076;52.182;5.404;2023-12-22T00:45:09;4.80;;;1.30;;
36009;SDS011;22076;52.182;5.404;2023-12-22T00:47:36;11.68;;;1.73;;
36009;SDS011;22076;52.182;5.404;2023-12-22T00:50:02;6.80;;;1.38;;
36009;SDS011;22076;52.182;5.404;2023-12-22T00:52:31;6.63;;;1.50;;
36009;SDS011;22076;52.182;5.404;2023-12-22T00:54:57;6.07;;;1.73;;
36009;SDS011;22076;52.182;5.404;2023-12-22T00:57:25;14.38;;;2.13;;
36009;SDS011;22076;52.182;5.404;2023-12-22T00:59:52;13.32;;;1.58;;
36009;SDS011;22076;52.182;5.404;2023-12-22T01:02:18;22.67;;;2.15;;
36009;SDS011;22076;52.182;5.404;2023-12-22T01:04:45;8.40;;;1.80;;
36009;SDS011;22076;52.182;5.404;2023-12-22T01:07:12;10.65;;;1.80;;
36009;SDS011;22076;52.182;5.404;2023-12-22T01:09:39;11.30;;;1.20;;
36009;SDS011;22076;52.182;5.404;2023-12-22T01:12:06;5.45;;;1.20;;
36009;SDS011;22076;52.182;5.404;2023-12-22T01:14:34;9.57;;;1.40;;
36009;SDS011;22076;52.182;5.404;2023-12-22T01:17:00;7.47;;;1.60;;
36009;SDS011;22076;52.182;5.404;2023-12-22T01:19:28;6.88;;;1.45;;
36009;SDS011;22076;52.182;5.404;2023-12-22T01:21:54;13.65;;;2.63;;
36009;SDS011;22076;52.182;5.404;2023-12-22T01:24:21;12.80;;;1.65;;
36009;SDS011;22076;52.182;5.404;2023-12-22T01:26:47;11.32;;;1.77;;
36009;SDS011;22076;52.182;5.404;2023-12-22T01:29:14;10.77;;;1.65;;
36009;SDS011;22076;52.182;5.404;2023-12-22T01:31:42;7.70;;;1.17;;
36009;SDS011;22076;52.182;5.404;2023-12-22T01:34:08;19.15;;;2.10;;
36009;SDS011;22076;52.182;5.404;2023-12-22T01:36:35;17.75;;;2.08;;
36009;SDS011;22076;52.182;5.404;2023-12-22T01:39:01;9.20;;;1.33;;
36009;SDS011;22076;52.182;5.404;2023-12-22T01:41:28;7.55;;;1.20;;
36009;SDS011;22076;52.182;5.404;2023-12-22T01:43:54;13.73;;;2.42;;
36009;SDS011;22076;52.182;5.404;2023-12-22T01:46:21;8.70;;;1.30;;
36009;SDS011;22076;52.182;5.404;2023-12-22T01:48:49;5.93;;;1.55;;
36009;SDS011;22076;52.182;5.404;2023-12-22T01:51:16;14.93;;;2.33;;
36009;SDS011;22076;52.182;5.404;2023-12-22T01:53:42;16.75;;;1.80;;
36009;SDS011;22076;52.182;5.404;2023-12-22T01:56:11;8.18;;;1.55;;
36009;SDS011;22076;52.182;5.404;2023-12-22T01:58:38;12.13;;;1.88;;
36009;SDS011;22076;52.182;5.404;2023-12-22T02:01:05;14.40;;;2.85;;
36009;SDS011;22076;52.182;5.404;2023-12-22T02:03:33;15.05;;;2.08;;
36009;SDS011;22076;52.182;5.404;2023-12-22T02:06:03;13.98;;;2.65;;
36009;SDS011;22076;52.182;5.404;2023-12-22T02:08:30;11.30;;;1.50;;
36009;SDS011;22076;52.182;5.404;2023-12-22T02:10:59;13.07;;;1.80;;
36009;SDS011;22076;52.182;5.404;2023-12-22T02:13:25;14.80;;;2.60;;
36009;SDS011;22076;52.182;5.404;2023-12-22T02:15:55;9.50;;;1.58;;
36009;SDS011;22076;52.182;5.404;2023-12-22T02:18:30;11.45;;;1.98;;
36009;SDS011;22076;52.182;5.404;2023-12-22T02:21:00;20.38;;;3.22;;
36009;SDS011;22076;52.182;5.404;2023-12-22T02:23:28;10.50;;;1.77;;
36009;SDS011;22076;52.182;5.404;2023-12-22T02:25:56;17.42;;;2.53;;
36009;SDS011;22076;52.182;5.404;2023-12-22T02:28:30;14.40;;;1.83;;
36009;SDS011;22076;52.182;5.404;2023-12-22T02:31:00;17.33;;;2.58;;
36009;SDS011;22076;52.182;5.404;2023-12-22T02:33:30;19.52;;;3.25;;
36009;SDS011;22076;52.182;5.404;2023-12-22T02:35:58;17.60;;;2.40;;
36009;SDS011;22076;52.182;5.404;2023-12-22T02:38:30;17.02;;;3.10;;
36009;SDS011;22076;52.182;5.404;2023-12-22T02:40:59;20.13;;;3.67;;
36009;SDS011;22076;52.182;5.404;2023-12-22T02:43:26;16.88;;;3.20;;
36009;SDS011;22076;52.182;5.404;2023-12-22T02:45:53;24.33;;;2.70;;
36009;SDS011;22076;52.182;5.404;2023-12-22T02:48:19;14.60;;;2.60;;
36009;SDS011;22076;52.182;5.404;2023-12-22T02:50:46;6.95;;;1.73;;
36009;SDS011;22076;52.182;5.404;2023-12-22T02:53:12;8.35;;;2.75;;
36009;SDS011;22076;52.182;5.404;2023-12-22T02:55:40;20.15;;;2.47;;
36009;SDS011;22076;52.182;5.404;2023-12-22T02:58:07;20.48;;;3.30;;
36009;SDS011;22076;52.182;5.404;2023-12-22T03:00:33;16.42;;;2.50;;
36009;SDS011;22076;52.182;5.404;2023-12-22T03:03:00;11.77;;;1.98;;
36009;SDS011;22076;52.182;5.404;2023-12-22T03:05:26;31.38;;;4.20;;
36009;SDS011;22076;52.182;5.404;2023-12-22T03:07:53;30.08;;;3.85;;
36009;SDS011;22076;52.182;5.404;2023-12-22T03:10:19;22.70;;;3.58;;
36009;SDS011;22076;52.182;5.404;2023-12-22T03:12:47;16.90;;;2.45;;
36009;SDS011;22076;52.182;5.404;2023-12-22T03:15:14;15.73;;;1.70;;
36009;SDS011;22076;52.182;5.404;2023-12-22T03:17:40;7.60;;;2.42;;
36009;SDS011;22076;52.182;5.404;2023-12-22T03:20:07;19.20;;;1.88;;
36009;SDS011;22076;52.182;5.404;2023-12-22T03:22:34;11.95;;;1.48;;
36009;SDS011;22076;52.182;5.404;2023-12-22T03:25:00;9.27;;;2.05;;
36009;SDS011;22076;52.182;5.404;2023-12-22T03:27:27;20.80;;;2.80;;
36009;SDS011;22076;52.182;5.404;2023-12-22T03:29:55;16.70;;;2.42;;
36009;SDS011;22076;52.182;5.404;2023-12-22T03:32:21;9.15;;;1.40;;
36009;SDS011;22076;52.182;5.404;2023-12-22T03:34:48;16.90;;;2.65;;
36009;SDS011;22076;52.182;5.404;2023-12-22T03:37:14;12.02;;;2.00;;
36009;SDS011;22076;52.182;5.404;2023-12-22T03:39:41;4.70;;;1.73;;
36009;SDS011;22076;52.182;5.404;2023-12-22T03:42:07;7.20;;;1.45;;
36009;SDS011;22076;52.182;5.404;2023-12-22T03:44:34;14.00;;;1.92;;
36009;SDS011;22076;52.182;5.404;2023-12-22T03:47:02;9.25;;;1.80;;
36009;SDS011;22076;52.182;5.404;2023-12-22T03:49:28;14.55;;;2.45;;
36009;SDS011;22076;52.182;5.404;2023-12-22T03:51:55;8.13;;;1.95;;
36009;SDS011;22076;52.182;5.404;2023-12-22T03:54:21;12.18;;;2.85;;
36009;SDS011;22076;52.182;5.404;2023-12-22T03:56:48;7.93;;;1.73;;
36009;SDS011;22076;52.182;5.404;2023-12-22T03:59:13;7.32;;;1.55;;
36009;SDS011;22076;52.182;5.404;2023-12-22T04:01:44;10.07;;;1.48;;
36009;SDS011;22076;52.182;5.404;2023-12-22T04:04:18;13.25;;;1.52;;
36009;SDS011;22076;52.182;5.404;2023-12-22T04:06:45;3.50;;;0.90;;
36009;SDS011;22076;52.182;5.404;2023-12-22T04:09:11;7.00;;;1.58;;
36009;SDS011;22076;52.182;5.404;2023-12-22T04:11:38;6.20;;;1.10;;
36009;SDS011;22076;52.182;5.404;2023-12-22T04:14:06;11.02;;;1.23;;
36009;SDS011;22076;52.182;5.404;2023-12-22T04:16:33;15.15;;;1.83;;
36009;SDS011;22076;52.182;5.404;2023-12-22T04:19:02;18.85;;;2.50;;
36009;SDS011;22076;52.182;5.404;2023-12-22T04:21:30;10.93;;;1.48;;
36009;SDS011;22076;52.182;5.404;2023-12-22T04:23:56;16.30;;;1.90;;
36009;SDS011;22076;52.182;5.404;2023-12-22T04:26:23;15.65;;;2.78;;
36009;SDS011;22076;52.182;5.404;2023-12-22T04:28:49;17.90;;;2.35;;
36009;SDS011;22076;52.182;5.404;2023-12-22T04:31:16;10.48;;;1.98;;
36009;SDS011;22076;52.182;5.404;2023-12-22T04:33:42;11.32;;;2.05;;
36009;SDS011;22076;52.182;5.404;2023-12-22T04:36:08;21.50;;;3.28;;
36009;SDS011;22076;52.182;5.404;2023-12-22T04:38:36;9.55;;;1.77;;
36009;SDS011;22076;52.182;5.404;2023-12-22T04:41:03;9.40;;;1.50;;
36009;SDS011;22076;52.182;5.404;2023-12-22T04:43:29;14.52;;;2.88;;
36009;SDS011;22076;52.182;5.404;2023-12-22T04:45:56;32.78;;;4.78;;
36009;SDS011;22076;52.182;5.404;2023-12-22T04:48:22;21.35;;;3.33;;
36009;SDS011;22076;52.182;5.404;2023-12-22T04:50:49;8.30;;;2.17;;
36009;SDS011;22076;52.182;5.404;2023-12-22T04:53:15;9.52;;;2.42;;
36009;SDS011;22076;52.182;5.404;2023-12-22T04:55:43;19.80;;;3.00;;
36009;SDS011;22076;52.182;5.404;2023-12-22T04:58:10;21.80;;;2.97;;
36009;SDS011;22076;52.182;5.404;2023-12-22T05:00:36;18.10;;;2.92;;
36009;SDS011;22076;52.182;5.404;2023-12-22T05:03:03;11.90;;;2.90;;
36009;SDS011;22076;52.182;5.404;2023-12-22T05:05:30;23.50;;;3.08;;
36009;SDS011;22076;52.182;5.404;2023-12-22T05:07:57;11.77;;;2.10;;
36009;SDS011;22076;52.182;5.404;2023-12-22T05:10:24;26.40;;;3.58;;
36009;SDS011;22076;52.182;5.404;2023-12-22T05:12:51;19.58;;;3.00;;
36009;SDS011;22076;52.182;5.404;2023-12-22T05:15:18;13.10;;;2.47;;
36009;SDS011;22076;52.182;5.404;2023-12-22T05:17:44;17.90;;;3.67;;
36009;SDS011;22076;52.182;5.404;2023-12-22T05:20:11;28.50;;;3.40;;
36009;SDS011;22076;52.182;5.404;2023-12-22T05:22:39;19.35;;;2.90;;
36009;SDS011;22076;52.182;5.404;2023-12-22T05:25:06;12.48;;;2.42;;
36009;SDS011;22076;52.182;5.404;2023-12-22T05:27:35;23.38;;;3.33;;
36009;SDS011;22076;52.182;5.404;2023-12-22T05:30:03;16.88;;;2.75;;
36009;SDS011;22076;52.182;5.404;2023-12-22T05:32:30;24.27;;;3.72;;
36009;SDS011;22076;52.182;5.404;2023-12-22T05:34:57;16.23;;;2.85;;
36009;SDS011;22076;52.182;5.404;2023-12-22T05:37:23;23.02;;;3.00;;
36009;SDS011;22076;52.182;5.404;2023-12-22T05:39:50;25.98;;;3.75;;
36009;SDS011;22076;52.182;5.404;2023-12-22T05:42:16;18.13;;;2.47;;
36009;SDS011;22076;52.182;5.404;2023-12-22T05:44:43;19.50;;;2.42;;
36009;SDS011;22076;52.182;5.404;2023-12-22T05:47:12;27.60;;;3.97;;
36009;SDS011;22076;52.182;5.404;2023-12-22T05:49:39;23.55;;;3.53;;
36009;SDS011;22076;52.182;5.404;2023-12-22T05:52:06;23.98;;;2.55;;
36009;SDS011;22076;52.182;5.404;2023-12-22T05:54:34;10.55;;;2.53;;
36009;SDS011;22076;52.182;5.404;2023-12-22T05:57:01;14.23;;;2.92;;
36009;SDS011;22076;52.182;5.404;2023-12-22T05:59:30;15.00;;;2.25;;
36009;SDS011;22076;52.182;5.404;2023-12-22T06:01:57;17.73;;;2.40;;
36009;SDS011;22076;52.182;5.404;2023-12-22T06:04:25;16.40;;;2.83;;
36009;SDS011;22076;52.182;5.404;2023-12-22T06:06:52;13.90;;;1.88;;
36009;SDS011;22076;52.182;5.404;2023-12-22T06:09:18;10.48;;;2.30;;
36009;SDS011;22076;52.182;5.404;2023-12-22T06:11:47;11.85;;;2.13;;
36009;SDS011;22076;52.182;5.404;2023-12-22T06:14:13;11.93;;;2.38;;
36009;SDS011;22076;52.182;5.404;2023-12-22T06:16:40;13.50;;;2.92;;
36009;SDS011;22076;52.182;5.404;2023-12-22T06:19:06;17.15;;;2.72;;
36009;SDS011;22076;52.182;5.404;2023-12-22T06:21:36;6.72;;;2.58;;
36009;SDS011;22076;52.182;5.404;2023-12-22T06:24:03;19.40;;;3.03;;
36009;SDS011;22076;52.182;5.404;2023-12-22T06:26:30;11.40;;;2.22;;
36009;SDS011;22076;52.182;5.404;2023-12-22T06:28:58;20.67;;;3.25;;
36009;SDS011;22076;52.182;5.404;2023-12-22T06:31:24;23.10;;;2.88;;
36009;SDS011;22076;52.182;5.404;2023-12-22T06:33:51;25.58;;;4.10;;
36009;SDS011;22076;52.182;5.404;2023-12-22T06:36:18;25.20;;;2.90;;
36009;SDS011;22076;52.182;5.404;2023-12-22T06:38:47;10.85;;;2.42;;
36009;SDS011;22076;52.182;5.404;2023-12-22T06:41:20;22.05;;;3.97;;
36009;SDS011;22076;52.182;5.404;2023-12-22T06:43:47;22.45;;;4.35;;
36009;SDS011;22076;52.182;5.404;2023-12-22T06:46:14;10.30;;;2.47;;
36009;SDS011;22076;52.182;5.404;2023-12-22T06:48:42;21.70;;;3.42;;
36009;SDS011;22076;52.182;5.404;2023-12-22T06:51:16;18.30;;;3.85;;
36009;SDS011;22076;52.182;5.404;2023-12-22T06:53:43;16.88;;;3.25;;
36009;SDS011;22076;52.182;5.404;2023-12-22T06:56:15;17.45;;;3.65;;
36009;SDS011;22076;52.182;5.404;2023-12-22T07:01:09;23.27;;;3.40;;
36009;SDS011;22076;52.182;5.404;2023-12-22T07:03:37;23.00;;;4.38;;
36009;SDS011;22076;52.182;5.404;2023-12-22T07:06:04;20.65;;;3.00;;
36009;SDS011;22076;52.182;5.404;2023-12-22T07:08:30;18.63;;;3.40;;
36009;SDS011;22076;52.182;5.404;2023-12-22T07:10:57;28.45;;;3.67;;
36009;SDS011;22076;52.182;5.404;2023-12-22T07:13:25;31.48;;;5.75;;
36009;SDS011;22076;52.182;5.404;2023-12-22T07:15:51;24.00;;;3.72;;
36009;SDS011;22076;52.182;5.404;2023-12-22T07:18:18;20.98;;;4.03;;
36009;SDS011;22076;52.182;5.404;2023-12-22T07:20:44;22.02;;;4.07;;
36009;SDS011;22076;52.182;5.404;2023-12-22T07:23:17;33.67;;;5.38;;
36009;SDS011;22076;52.182;5.404;2023-12-22T07:25:44;26.63;;;4.32;;
36009;SDS011;22076;52.182;5.404;2023-12-22T07:28:10;31.98;;;4.63;;
36009;SDS011;22076;52.182;5.404;2023-12-22T07:30:38;13.25;;;2.55;;
36009;SDS011;22076;52.182;5.404;2023-12-22T07:33:05;18.80;;;3.33;;
36009;SDS011;22076;52.182;5.404;2023-12-22T07:35:31;24.45;;;3.40;;
36009;SDS011;22076;52.182;5.404;2023-12-22T07:37:58;28.55;;;4.63;;
36009;SDS011;22076;52.182;5.404;2023-12-22T07:40:24;28.45;;;4.40;;
36009;SDS011;22076;52.182;5.404;2023-12-22T07:42:51;27.20;;;3.90;;
36009;SDS011;22076;52.182;5.404;2023-12-22T07:45:18;36.47;;;4.15;;
36009;SDS011;22076;52.182;5.404;2023-12-22T07:47:46;23.73;;;4.03;;
36009;SDS011;22076;52.182;5.404;2023-12-22T07:50:13;31.83;;;4.47;;
36009;SDS011;22076;52.182;5.404;2023-12-22T07:52:40;26.52;;;3.80;;
36009;SDS011;22076;52.182;5.404;2023-12-22T07:55:08;24.05;;;4.57;;
36009;SDS011;22076;52.182;5.404;2023-12-22T07:57:35;20.10;;;4.18;;
36009;SDS011;22076;52.182;5.404;2023-12-22T08:00:02;30.92;;;4.35;;
36009;SDS011;22076;52.182;5.404;2023-12-22T08:02:30;23.60;;;3.78;;
36009;SDS011;22076;52.182;5.404;2023-12-22T08:04:58;22.60;;;4.18;;
36009;SDS011;22076;52.182;5.404;2023-12-22T08:07:24;27.23;;;4.47;;
36009;SDS011;22076;52.182;5.404;2023-12-22T08:09:51;16.77;;;3.08;;
36009;SDS011;22076;52.182;5.404;2023-12-22T08:12:18;25.40;;;4.10;;
36009;SDS011;22076;52.182;5.404;2023-12-22T08:14:44;22.85;;;4.07;;
36009;SDS011;22076;52.182;5.404;2023-12-22T08:17:11;25.85;;;4.18;;
36009;SDS011;22076;52.182;5.404;2023-12-22T08:19:38;36.33;;;5.68;;
36009;SDS011;22076;52.182;5.404;2023-12-22T08:22:09;30.25;;;4.47;;
36009;SDS011;22076;52.182;5.404;2023-12-22T08:24:36;38.60;;;5.68;;
36009;SDS011;22076;52.182;5.404;2023-12-22T08:27:03;28.20;;;3.95;;
36009;SDS011;22076;52.182;5.404;2023-12-22T08:29:29;27.25;;;4.05;;
36009;SDS011;22076;52.182;5.404;2023-12-22T08:31:56;18.15;;;3.53;;
36009;SDS011;22076;52.182;5.404;2023-12-22T08:34:22;28.63;;;4.30;;
36009;SDS011;22076;52.182;5.404;2023-12-22T08:36:49;23.60;;;6.25;;
36009;SDS011;22076;52.182;5.404;2023-12-22T08:39:17;32.38;;;4.63;;
36009;SDS011;22076;52.182;5.404;2023-12-22T08:41:44;20.70;;;4.07;;
36009;SDS011;22076;52.182;5.404;2023-12-22T08:44:18;26.92;;;4.60;;
36009;SDS011;22076;52.182;5.404;2023-12-22T08:46:44;20.95;;;3.83;;
36009;SDS011;22076;52.182;5.404;2023-12-22T08:49:10;23.25;;;4.47;;
36009;SDS011;22076;52.182;5.404;2023-12-22T08:51:37;15.48;;;4.40;;
36009;SDS011;22076;52.182;5.404;2023-12-22T08:54:04;10.88;;;1.63;;
36009;SDS011;22076;52.182;5.404;2023-12-22T08:56:31;29.98;;;4.50;;
36009;SDS011;22076;52.182;5.404;2023-12-22T08:59:00;7.63;;;2.75;;
36009;SDS011;22076;52.182;5.404;2023-12-22T09:01:26;31.95;;;4.55;;
36009;SDS011;22076;52.182;5.404;2023-12-22T09:03:53;21.67;;;4.80;;
36009;SDS011;22076;52.182;5.404;2023-12-22T09:06:20;25.05;;;3.65;;
36009;SDS011;22076;52.182;5.404;2023-12-22T09:08:47;23.10;;;3.40;;
36009;SDS011;22076;52.182;5.404;2023-12-22T09:11:15;15.93;;;3.08;;
36009;SDS011;22076;52.182;5.404;2023-12-22T09:13:44;14.65;;;3.45;;
36009;SDS011;22076;52.182;5.404;2023-12-22T09:16:11;16.15;;;3.20;;
36009;SDS011;22076;52.182;5.404;2023-12-22T09:18:40;25.15;;;4.07;;
36009;SDS011;22076;52.182;5.404;2023-12-22T09:21:07;16.10;;;2.88;;
36009;SDS011;22076;52.182;5.404;2023-12-22T09:23:33;17.88;;;3.28;;
36009;SDS011;22076;52.182;5.404;2023-12-22T09:26:00;15.35;;;3.08;;
36009;SDS011;22076;52.182;5.404;2023-12-22T09:28:26;22.45;;;3.20;;
36009;SDS011;22076;52.182;5.404;2023-12-22T09:30:54;11.35;;;2.88;;
36009;SDS011;22076;52.182;5.404;2023-12-22T09:33:21;14.55;;;1.90;;
36009;SDS011;22076;52.182;5.404;2023-12-22T09:35:48;5.40;;;1.23;;
36009;SDS011;22076;52.182;5.404;2023-12-22T09:38:16;5.70;;;1.73;;
36009;SDS011;22076;52.182;5.404;2023-12-22T09:40:42;8.02;;;1.42;;
36009;SDS011;22076;52.182;5.404;2023-12-22T09:43:09;5.28;;;1.75;;
36009;SDS011;22076;52.182;5.404;2023-12-22T09:45:37;4.93;;;1.65;;
36009;SDS011;22076;52.182;5.404;2023-12-22T09:48:06;7.97;;;2.00;;
36009;SDS011;22076;52.182;5.404;2023-12-22T09:50:35;9.73;;;1.20;;
36009;SDS011;22076;52.182;5.404;2023-12-22T09:53:04;8.00;;;1.70;;
36009;SDS011;22076;52.182;5.404;2023-12-22T09:55:32;7.35;;;1.73;;
36009;SDS011;22076;52.182;5.404;2023-12-22T09:57:59;8.07;;;1.80;;
36009;SDS011;22076;52.182;5.404;2023-12-22T10:00:28;16.80;;;2.72;;
36009;SDS011;22076;52.182;5.404;2023-12-22T10:02:57;9.77;;;2.28;;
36009;SDS011;22076;52.182;5.404;2023-12-22T10:05:25;7.47;;;1.88;;
36009;SDS011;22076;52.182;5.404;2023-12-22T10:07:51;16.00;;;2.60;;
36009;SDS011;22076;52.182;5.404;2023-12-22T10:10:19;18.67;;;2.45;;
36009;SDS011;22076;52.182;5.404;2023-12-22T10:12:46;15.82;;;2.03;;
36009;SDS011;22076;52.182;5.404;2023-12-22T10:15:14;14.57;;;2.80;;
36009;SDS011;22076;52.182;5.404;2023-12-22T10:17:40;11.10;;;2.40;;
36009;SDS011;22076;52.182;5.404;2023-12-22T10:20:07;11.25;;;2.40;;
36009;SDS011;22076;52.182;5.404;2023-12-22T10:22:36;17.23;;;2.72;;
36009;SDS011;22076;52.182;5.404;2023-12-22T10:25:03;13.43;;;1.85;;
36009;SDS011;22076;52.182;5.404;2023-12-22T10:27:31;9.18;;;1.77;;
36009;SDS011;22076;52.182;5.404;2023-12-22T10:29:58;7.80;;;1.75;;
36009;SDS011;22076;52.182;5.404;2023-12-22T10:32:25;15.32;;;2.80;;
36009;SDS011;22076;52.182;5.404;2023-12-22T10:34:52;13.27;;;3.03;;
36009;SDS011;22076;52.182;5.404;2023-12-22T10:37:19;11.60;;;2.30;;
36009;SDS011;22076;52.182;5.404;2023-12-22T10:39:49;9.55;;;1.80;;
36009;SDS011;22076;52.182;5.404;2023-12-22T10:42:18;10.82;;;2.20;;
36009;SDS011;22076;52.182;5.404;2023-12-22T10:44:44;14.38;;;2.30;;
36009;SDS011;22076;52.182;5.404;2023-12-22T10:47:11;11.05;;;2.13;;
36009;SDS011;22076;52.182;5.404;2023-12-22T10:49:38;13.85;;;2.60;;
36009;SDS011;22076;52.182;5.404;2023-12-22T10:52:05;9.63;;;2.13;;
36009;SDS011;22076;52.182;5.404;2023-12-22T10:54:32;12.95;;;2.30;;
36009;SDS011;22076;52.182;5.404;2023-12-22T10:57:00;18.85;;;2.97;;
36009;SDS011;22076;52.182;5.404;2023-12-22T10:59:28;10.90;;;2.33;;
36009;SDS011;22076;52.182;5.404;2023-12-22T11:01:56;19.80;;;2.55;;
36009;SDS011;22076;52.182;5.404;2023-12-22T11:04:25;10.82;;;2.22;;
36009;SDS011;22076;52.182;5.404;2023-12-22T11:06:57;16.08;;;2.65;;
36009;SDS011;22076;52.182;5.404;2023-12-22T11:09:24;10.68;;;2.08;;
36009;SDS011;22076;52.182;5.404;2023-12-22T11:11:57;16.13;;;2.63;;
36009;SDS011;22076;52.182;5.404;2023-12-22T11:14:26;9.25;;;1.40;;
36009;SDS011;22076;52.182;5.404;2023-12-22T11:16:55;6.13;;;1.50;;
36009;SDS011;22076;52.182;5.404;2023-12-22T11:19:22;9.57;;;2.55;;
36009;SDS011;22076;52.182;5.404;2023-12-22T11:21:49;14.27;;;2.33;;
36009;SDS011;22076;52.182;5.404;2023-12-22T11:24:17;8.65;;;1.63;;
36009;SDS011;22076;52.182;5.404;2023-12-22T11:26:45;14.65;;;2.47;;
36009;SDS011;22076;52.182;5.404;2023-12-22T11:29:15;7.25;;;1.40;;
36009;SDS011;22076;52.182;5.404;2023-12-22T11:31:44;18.48;;;2.60;;
36009;SDS011;22076;52.182;5.404;2023-12-22T11:34:12;13.68;;;2.40;;
36009;SDS011;22076;52.182;5.404;2023-12-22T11:36:38;16.80;;;1.85;;
36009;SDS011;22076;52.182;5.404;2023-12-22T11:39:06;12.75;;;2.75;;
36009;SDS011;22076;52.182;5.404;2023-12-22T11:41:34;13.73;;;3.00;;
36009;SDS011;22076;52.182;5.404;2023-12-22T11:44:03;19.60;;;2.88;;
36009;SDS011;22076;52.182;5.404;2023-12-22T11:46:32;15.25;;;2.13;;
36009;SDS011;22076;52.182;5.404;2023-12-22T11:48:59;14.38;;;2.60;;
36009;SDS011;22076;52.182;5.404;2023-12-22T11:51:31;14.50;;;2.55;;
36009;SDS011;22076;52.182;5.404;2023-12-22T11:53:59;15.40;;;2.92;;
36009;SDS011;22076;52.182;5.404;2023-12-22T11:56:26;11.40;;;1.75;;
36009;SDS011;22076;52.182;5.404;2023-12-22T11:58:52;5.85;;;1.48;;
36009;SDS011;22076;52.182;5.404;2023-12-22T12:01:19;5.90;;;1.10;;
36009;SDS011;22076;52.182;5.404;2023-12-22T12:03:49;11.25;;;2.40;;
36009;SDS011;22076;52.182;5.404;2023-12-22T12:06:21;19.92;;;2.25;;
36009;SDS011;22076;52.182;5.404;2023-12-22T12:08:56;7.78;;;1.60;;
36009;SDS011;22076;52.182;5.404;2023-12-22T12:11:24;9.00;;;2.22;;
36009;SDS011;22076;52.182;5.404;2023-12-22T12:14:37;13.38;;;2.22;;
36009;SDS011;22076;52.182;5.404;2023-12-22T12:17:08;13.95;;;2.05;;
36009;SDS011;22076;52.182;5.404;2023-12-22T12:19:36;9.13;;;1.77;;
36009;SDS011;22076;52.182;5.404;2023-12-22T12:22:04;14.48;;;2.55;;
36009;SDS011;22076;52.182;5.404;2023-12-22T12:24:31;18.17;;;2.45;;
36009;SDS011;22076;52.182;5.404;2023-12-22T12:26:57;10.27;;;1.92;;
36009;SDS011;22076;52.182;5.404;2023-12-22T12:29:24;4.50;;;1.13;;
36009;SDS011;22076;52.182;5.404;2023-12-22T12:31:51;14.05;;;3.10;;
36009;SDS011;22076;52.182;5.404;2023-12-22T12:34:17;12.88;;;1.52;;
36009;SDS011;22076;52.182;5.404;2023-12-22T12:36:47;9.50;;;1.70;;
36009;SDS011;22076;52.182;5.404;2023-12-22T12:39:15;10.60;;;1.95;;
36009;SDS011;22076;52.182;5.404;2023-12-22T12:41:44;12.75;;;1.88;;
36009;SDS011;22076;52.182;5.404;2023-12-22T12:44:16;15.80;;;2.80;;
36009;SDS011;22076;52.182;5.404;2023-12-22T12:46:43;14.05;;;2.40;;
36009;SDS011;22076;52.182;5.404;2023-12-22T12:49:10;10.77;;;2.05;;
36009;SDS011;22076;52.182;5.404;2023-12-22T12:51:37;13.98;;;2.50;;
36009;SDS011;22076;52.182;5.404;2023-12-22T12:54:06;17.48;;;1.95;;
36009;SDS011;22076;52.182;5.404;2023-12-22T12:56:37;11.27;;;1.80;;
36009;SDS011;22076;52.182;5.404;2023-12-22T12:59:07;6.07;;;1.77;;
36009;SDS011;22076;52.182;5.404;2023-12-22T13:01:37;6.75;;;1.55;;
36009;SDS011;22076;52.182;5.404;2023-12-22T13:04:04;12.52;;;1.70;;
36009;SDS011;22076;52.182;5.404;2023-12-22T13:06:31;11.48;;;2.40;;
36009;SDS011;22076;52.182;5.404;2023-12-22T13:08:58;14.93;;;2.30;;
36009;SDS011;22076;52.182;5.404;2023-12-22T13:11:26;14.00;;;2.25;;
36009;SDS011;22076;52.182;5.404;2023-12-22T13:13:54;12.05;;;2.20;;
36009;SDS011;22076;52.182;5.404;2023-12-22T13:16:21;13.77;;;2.38;;
36009;SDS011;22076;52.182;5.404;2023-12-22T13:18:51;7.40;;;1.65;;
36009;SDS011;22076;52.182;5.404;2023-12-22T13:21:17;7.53;;;2.00;;
36009;SDS011;22076;52.182;5.404;2023-12-22T13:23:44;15.88;;;1.65;;
36009;SDS011;22076;52.182;5.404;2023-12-22T13:26:17;17.75;;;2.17;;
36009;SDS011;22076;52.182;5.404;2023-12-22T13:28:45;9.18;;;1.65;;
36009;SDS011;22076;52.182;5.404;2023-12-22T13:31:12;6.78;;;1.85;;
36009;SDS011;22076;52.182;5.404;2023-12-22T13:33:40;13.82;;;2.63;;
36009;SDS011;22076;52.182;5.404;2023-12-22T13:36:07;12.00;;;2.05;;
36009;SDS011;22076;52.182;5.404;2023-12-22T13:38:33;13.60;;;2.42;;
36009;SDS011;22076;52.182;5.404;2023-12-22T13:41:00;18.95;;;2.15;;
36009;SDS011;22076;52.182;5.404;2023-12-22T13:43:27;14.93;;;2.67;;
36009;SDS011;22076;52.182;5.404;2023-12-22T13:45:57;5.63;;;1.23;;
36009;SDS011;22076;52.182;5.404;2023-12-22T13:48:24;18.00;;;2.42;;
36009;SDS011;22076;52.182;5.404;2023-12-22T13:50:57;14.40;;;3.05;;
36009;SDS011;22076;52.182;5.404;2023-12-22T13:53:24;12.38;;;1.98;;
36009;SDS011;22076;52.182;5.404;2023-12-22T13:55:55;9.35;;;1.70;;
36009;SDS011;22076;52.182;5.404;2023-12-22T13:58:22;11.90;;;1.95;;
36009;SDS011;22076;52.182;5.404;2023-12-22T14:00:48;10.27;;;2.17;;
36009;SDS011;22076;52.182;5.404;2023-12-22T14:03:16;14.25;;;2.50;;
36009;SDS011;22076;52.182;5.404;2023-12-22T14:05:46;4.95;;;0.95;;
36009;SDS011;22076;52.182;5.404;2023-12-22T14:08:13;14.60;;;1.58;;
36009;SDS011;22076;52.182;5.404;2023-12-22T14:10:44;14.30;;;2.97;;
36009;SDS011;22076;52.182;5.404;2023-12-22T14:13:11;10.38;;;2.33;;
36009;SDS011;22076;52.182;5.404;2023-12-22T14:15:38;17.73;;;2.67;;
36009;SDS011;22076;52.182;5.404;2023-12-22T14:18:04;17.75;;;3.05;;
36009;SDS011;22076;52.182;5.404;2023-12-22T14:20:32;13.93;;;3.03;;
36009;SDS011;22076;52.182;5.404;2023-12-22T14:22:59;17.25;;;2.97;;
36009;SDS011;22076;52.182;5.404;2023-12-22T14:25:25;11.07;;;2.63;;
36009;SDS011;22076;52.182;5.404;2023-12-22T14:27:52;17.17;;;2.33;;
36009;SDS011;22076;52.182;5.404;2023-12-22T14:30:22;4.65;;;1.25;;
36009;SDS011;22076;52.182;5.404;2023-12-22T14:32:48;8.10;;;1.92;;
36009;SDS011;22076;52.182;5.404;2023-12-22T14:35:15;14.02;;;2.90;;
36009;SDS011;22076;52.182;5.404;2023-12-22T14:37:43;12.73;;;2.22;;
36009;SDS011;22076;52.182;5.404;2023-12-22T14:40:11;18.35;;;2.97;;
36009;SDS011;22076;52.182;5.404;2023-12-22T14:42:37;15.07;;;2.53;;